createdAt,value
2022-08-03T00:02:39.438Z,99454.56
2022-08-03T00:12:41.053Z,99450.38
2022-08-03T00:22:42.610Z,99441.81
2022-08-03T00:32:45.096Z,99431.84
2022-08-03T00:42:51.794Z,99425.53
2022-08-03T00:52:54.169Z,99427.44
2022-08-03T01:02:55.834Z,99440.88
2022-08-03T01:13:59.224Z,99441.38
2022-08-03T01:23:48.603Z,99442.75
2022-08-03T01:33:53.036Z,99445.28
2022-08-03T01:44:29.460Z,99444.25
2022-08-03T01:54:19.895Z,99441.00
2022-08-03T02:04:22.783Z,99434.22
2022-08-03T02:14:24.710Z,99444.13
2022-08-03T02:24:26.442Z,99441.06
2022-08-03T02:34:29.856Z,99436.00
2022-08-03T02:44:34.844Z,99437.38
2022-08-03T02:54:38.311Z,99438.19
2022-08-03T03:04:54.975Z,99443.88
2022-08-03T03:15:02.150Z,99457.41
2022-08-03T03:25:04.626Z,99467.44
2022-08-03T03:35:06.897Z,99471.50
2022-08-03T03:45:09.021Z,99461.28
2022-08-03T03:55:10.807Z,99480.34
2022-08-03T04:05:42.880Z,99487.25
2022-08-03T04:15:48.116Z,99492.66
2022-08-03T04:25:51.745Z,99499.31
2022-08-03T04:36:01.179Z,99500.91
2022-08-03T04:46:04.926Z,99504.81
2022-08-03T04:56:07.143Z,99507.31
2022-08-03T05:06:11.398Z,99503.53
2022-08-03T05:16:15.552Z,99505.78
2022-08-03T05:26:17.213Z,99512.63
2022-08-03T05:36:18.885Z,99520.31
2022-08-03T05:56:27.353Z,99526.91
2022-08-03T06:06:32.288Z,99532.94
2022-08-03T06:16:34.294Z,99537.00
2022-08-03T06:26:36.023Z,99552.22
2022-08-03T06:36:37.751Z,99560.78
2022-08-03T06:46:39.847Z,99554.00
2022-08-03T06:56:41.421Z,99550.00
2022-08-03T07:06:43.044Z,99560.56
2022-08-03T07:16:44.626Z,99550.94
2022-08-03T07:26:46.329Z,99567.84
2022-08-03T07:36:49.867Z,99577.59
2022-08-03T07:46:51.478Z,99575.16
2022-08-03T07:56:53.521Z,99584.06
2022-08-03T08:06:55.093Z,99586.03
2022-08-03T08:16:56.882Z,99587.34
2022-08-03T08:26:58.588Z,99583.03
2022-08-03T08:37:00.508Z,99576.19
2022-08-03T08:47:04.274Z,99593.72
2022-08-03T08:57:16.514Z,99586.56
2022-08-03T09:07:29.293Z,99596.94
2022-08-03T09:17:40.046Z,99590.69
2022-08-03T09:27:42.805Z,99566.94
2022-08-03T09:38:12.512Z,99574.41
2022-08-03T09:48:22.295Z,99569.47
2022-08-03T09:58:24.732Z,99568.13
2022-08-03T10:08:26.353Z,99549.66
2022-08-03T10:18:28.947Z,99566.63
2022-08-03T10:28:45.014Z,99555.53
2022-08-03T10:38:52.664Z,99563.75
2022-08-03T10:48:56.700Z,99561.41
2022-08-03T10:58:58.425Z,99567.94
2022-08-03T11:09:11.002Z,99560.53
2022-08-03T11:19:13.643Z,99548.72
2022-08-03T11:29:32.082Z,99556.16
2022-08-03T11:39:40.852Z,99561.31
2022-08-03T11:49:42.618Z,99557.41
2022-08-03T11:59:44.313Z,99531.69
2022-08-03T12:10:05.679Z,99525.06
2022-08-03T12:20:08.893Z,99526.97
2022-08-03T12:30:10.827Z,99517.78
2022-08-03T12:40:20.117Z,99490.31
2022-08-03T12:50:33.545Z,99496.69
2022-08-03T13:00:35.276Z,99510.81
2022-08-03T13:10:36.850Z,99543.13
2022-08-03T13:20:38.550Z,99564.06
2022-08-03T13:30:40.795Z,99548.78
2022-08-03T13:40:42.521Z,99551.53
2022-08-03T13:50:44.086Z,99551.72
2022-08-03T14:00:45.714Z,99576.06
2022-08-03T14:10:47.286Z,99569.72
2022-08-03T14:20:54.382Z,99587.47
2022-08-03T14:30:58.240Z,99602.81
2022-08-03T14:41:00.012Z,99618.50
2022-08-03T14:51:01.916Z,99615.69
2022-08-03T15:01:04.047Z,99629.06
2022-08-03T15:11:25.644Z,99647.81
2022-08-03T15:21:46.814Z,99633.78
2022-08-03T15:31:48.990Z,99634.47
2022-08-03T15:41:50.615Z,99644.56
2022-08-03T15:51:52.203Z,99651.13
2022-08-03T16:01:56.682Z,99633.84
2022-08-03T16:11:58.477Z,99619.09
2022-08-03T16:22:00.056Z,99619.41
2022-08-03T16:32:09.396Z,99614.50
2022-08-03T16:42:11.382Z,99631.41
2022-08-03T16:52:13.455Z,99645.63
2022-08-03T17:02:26.052Z,99674.28
2022-08-03T17:12:28.376Z,99688.72
2022-08-03T17:22:33.391Z,99698.16
2022-08-03T17:32:42.804Z,99704.56
2022-08-03T17:42:54.371Z,99720.47
2022-08-03T17:53:07.470Z,99719.03
2022-08-03T18:03:20.696Z,99720.84
2022-08-03T18:13:30.697Z,99722.72
2022-08-03T18:23:36.629Z,99714.16
2022-08-03T18:34:16.917Z,99702.88
2022-08-03T18:44:08.520Z,99685.47
2022-08-03T18:54:51.706Z,99695.56
2022-08-03T19:05:02.260Z,99707.13
2022-08-03T19:15:10.635Z,99715.78
2022-08-03T19:25:14.883Z,99717.22
2022-08-03T19:35:18.921Z,99708.88
2022-08-03T19:46:04.669Z,99705.31
2022-08-03T20:06:04.943Z,99704.88
2022-08-03T20:16:06.843Z,99720.06
2022-08-03T20:26:11.994Z,99718.22
2022-08-03T20:36:15.903Z,99718.63
2022-08-03T20:46:32.853Z,99719.88
2022-08-03T20:56:40.218Z,99721.44
2022-08-03T21:06:57.221Z,99720.91
2022-08-03T21:17:03.596Z,99725.47
2022-08-03T21:27:06.025Z,99735.94
2022-08-03T21:37:07.802Z,99739.47
2022-08-03T21:47:11.180Z,99719.41
2022-08-03T21:57:23.184Z,99710.84
2022-08-03T22:07:26.577Z,99708.22
2022-08-03T22:17:56.084Z,99714.66
2022-08-03T22:27:52.639Z,99711.53
2022-08-03T22:37:55.504Z,99708.53
2022-08-03T22:47:57.821Z,99702.59
2022-08-03T22:57:59.418Z,99698.50
2022-08-03T23:08:03.189Z,99695.50
2022-08-03T23:18:06.476Z,99693.00
2022-08-03T23:28:13.882Z,99699.94
2022-08-03T23:38:22.988Z,99700.56
2022-08-03T23:48:25.204Z,99712.34
2022-08-03T23:58:32.910Z,99713.78
